createdAt,value
2023-05-23T00:02:32.837Z,17.80
2023-05-23T00:07:54.964Z,17.70
2023-05-23T00:13:15.600Z,17.70
2023-05-23T00:18:36.507Z,17.80
2023-05-23T00:23:58.782Z,17.70
2023-05-23T00:29:20.142Z,17.80
2023-05-23T00:34:40.751Z,17.70
2023-05-23T00:40:03.298Z,17.80
2023-05-23T00:45:24.301Z,17.80
2023-05-23T00:50:45.690Z,17.70
2023-05-23T00:56:08.093Z,17.70
2023-05-23T01:01:28.659Z,17.60
2023-05-23T01:06:49.588Z,17.60
2023-05-23T01:12:20.881Z,17.50
2023-05-23T01:17:52.159Z,17.50
2023-05-23T01:23:36.075Z,17.50
2023-05-23T01:29:04.557Z,17.40
2023-05-23T01:34:25.506Z,17.40
2023-05-23T01:39:46.255Z,17.40
2023-05-23T01:45:10.334Z,17.30
2023-05-23T01:50:32.477Z,17.30
2023-05-23T01:55:53.255Z,17.30
2023-05-23T02:01:16.028Z,17.20
2023-05-23T02:06:36.928Z,17.20
2023-05-23T02:11:58.054Z,17.20
2023-05-23T02:17:20.011Z,17.20
2023-05-23T02:22:41.132Z,17.10
2023-05-23T02:28:01.941Z,17.10
2023-05-23T02:33:24.058Z,17.10
2023-05-23T02:38:45.235Z,17.10
2023-05-23T02:44:06.305Z,17.00
2023-05-23T02:49:28.566Z,17.00
2023-05-23T02:54:49.209Z,16.90
2023-05-23T03:00:11.010Z,16.90
2023-05-23T03:05:33.193Z,16.90
2023-05-23T03:10:54.069Z,16.80
2023-05-23T03:16:15.005Z,16.80
2023-05-23T03:21:37.193Z,16.70
2023-05-23T03:26:58.314Z,16.70
2023-05-23T03:32:19.075Z,16.60
2023-05-23T03:37:41.596Z,16.50
2023-05-23T03:43:03.760Z,16.50
2023-05-23T03:48:24.454Z,16.40
2023-05-23T03:53:46.733Z,16.30
2023-05-23T03:59:07.814Z,16.30
2023-05-23T04:04:29.609Z,16.20
2023-05-23T04:09:52.230Z,16.20
2023-05-23T04:15:13.334Z,16.20
2023-05-23T04:20:34.101Z,16.10
2023-05-23T04:25:56.297Z,16.10
2023-05-23T04:31:17.059Z,16.00
2023-05-23T04:36:37.902Z,16.00
2023-05-23T04:42:00.277Z,15.90
2023-05-23T04:47:21.301Z,15.90
2023-05-23T04:52:42.126Z,15.80
2023-05-23T04:58:04.475Z,15.80
2023-05-23T05:03:25.647Z,15.80
2023-05-23T05:08:46.559Z,15.70
2023-05-23T05:14:08.867Z,15.70
2023-05-23T05:19:30.164Z,15.80
2023-05-23T05:24:51.287Z,15.70
2023-05-23T05:30:14.223Z,15.70
2023-05-23T05:35:36.049Z,15.70
2023-05-23T05:40:56.801Z,15.70
2023-05-23T05:46:19.127Z,15.60
2023-05-23T05:51:40.381Z,15.60
2023-05-23T05:57:01.325Z,15.60
2023-05-23T06:02:23.694Z,15.60
2023-05-23T06:07:44.738Z,15.50
2023-05-23T06:13:05.647Z,15.50
2023-05-23T06:18:27.853Z,15.40
2023-05-23T06:23:48.446Z,15.40
2023-05-23T06:29:09.241Z,15.30
2023-05-23T06:34:31.628Z,15.20
2023-05-23T06:39:52.823Z,15.20
2023-05-23T06:45:16.394Z,15.20
2023-05-23T06:50:39.549Z,15.10
2023-05-23T06:56:03.895Z,15.10
2023-05-23T07:01:24.897Z,15.10
2023-05-23T07:06:47.128Z,15.10
2023-05-23T07:12:08.215Z,15.10
2023-05-23T07:17:29.762Z,15.10
2023-05-23T07:22:52.317Z,15.20
2023-05-23T07:28:13.355Z,15.20
2023-05-23T07:33:34.278Z,15.20
2023-05-23T07:38:56.442Z,15.30
2023-05-23T07:44:19.883Z,15.30
2023-05-23T07:49:42.108Z,15.30
2023-05-23T07:55:04.800Z,15.30
2023-05-23T08:00:26.014Z,15.30
2023-05-23T08:05:47.757Z,15.40
2023-05-23T08:11:10.021Z,15.50
2023-05-23T08:16:31.175Z,15.60
2023-05-23T08:21:51.893Z,15.80
2023-05-23T08:27:14.214Z,15.90
2023-05-23T08:32:35.257Z,16.00
2023-05-23T08:37:55.799Z,16.40
2023-05-23T08:43:18.080Z,16.80
2023-05-23T08:48:43.541Z,16.90
2023-05-23T08:54:05.707Z,16.90
2023-05-23T08:59:29.492Z,16.90
2023-05-23T09:04:50.566Z,16.90
2023-05-23T09:10:11.515Z,17.30
2023-05-23T09:15:33.897Z,17.70
2023-05-23T09:20:54.833Z,17.90
2023-05-23T09:26:17.225Z,18.10
2023-05-23T09:31:39.792Z,18.50
2023-05-23T09:37:01.157Z,18.90
2023-05-23T09:42:23.274Z,18.90
2023-05-23T09:47:52.193Z,19.10
2023-05-23T09:53:13.154Z,19.50
2023-05-23T09:58:37.028Z,19.70
2023-05-23T10:04:01.350Z,19.70
2023-05-23T10:09:25.090Z,19.60
2023-05-23T10:14:52.141Z,19.60
2023-05-23T10:20:16.015Z,19.50
2023-05-23T10:25:38.089Z,19.60
2023-05-23T10:30:59.694Z,19.50
2023-05-23T10:36:28.260Z,19.50
2023-05-23T10:41:53.291Z,19.60
2023-05-23T10:47:26.883Z,19.60
2023-05-23T10:52:54.021Z,19.60
2023-05-23T10:58:18.196Z,19.60
2023-05-23T11:03:54.252Z,19.90
2023-05-23T11:09:18.049Z,20.20
2023-05-23T11:14:55.695Z,20.30
2023-05-23T11:20:18.874Z,20.50
2023-05-23T11:25:45.598Z,20.70
2023-05-23T11:31:07.772Z,20.90
2023-05-23T11:36:29.120Z,21.20
2023-05-23T11:42:02.090Z,21.40
2023-05-23T11:47:23.060Z,21.30
2023-05-23T11:52:44.053Z,21.40
2023-05-23T11:58:06.779Z,21.40
2023-05-23T12:03:27.958Z,21.40
2023-05-23T12:08:49.496Z,21.30
2023-05-23T12:14:16.632Z,21.20
2023-05-23T12:19:38.279Z,21.10
2023-05-23T12:24:59.536Z,21.10
2023-05-23T12:30:22.044Z,21.20
2023-05-23T12:35:44.643Z,21.20
2023-05-23T12:41:10.178Z,21.20
2023-05-23T12:46:32.696Z,21.20
2023-05-23T12:51:53.837Z,21.30
2023-05-23T12:57:14.857Z,21.30
2023-05-23T13:02:37.319Z,21.40
2023-05-23T13:07:58.051Z,21.30
2023-05-23T13:13:19.150Z,21.30
2023-05-23T13:18:41.305Z,21.30
2023-05-23T13:24:02.629Z,21.30
2023-05-23T13:29:23.315Z,21.30
2023-05-23T13:34:45.791Z,21.30
2023-05-23T13:40:08.463Z,21.40
2023-05-23T13:45:29.333Z,21.50
2023-05-23T13:50:51.711Z,21.50
2023-05-23T13:56:12.620Z,21.50
2023-05-23T14:01:33.676Z,21.60
2023-05-23T14:06:56.484Z,21.60
2023-05-23T14:12:17.444Z,21.60
2023-05-23T14:17:38.156Z,21.70
2023-05-23T14:23:00.550Z,21.90
2023-05-23T14:28:21.696Z,22.10
2023-05-23T14:33:42.473Z,22.00
2023-05-23T14:39:04.782Z,21.90
2023-05-23T14:44:25.527Z,21.70
2023-05-23T14:49:46.299Z,21.50
2023-05-23T14:55:09.431Z,21.30
2023-05-23T15:00:30.314Z,21.20
2023-05-23T15:05:51.274Z,21.10
2023-05-23T15:11:13.750Z,21.10
2023-05-23T15:16:34.763Z,21.10
2023-05-23T15:21:55.371Z,21.10
2023-05-23T15:27:20.601Z,21.00
2023-05-23T15:32:41.512Z,20.90
2023-05-23T15:38:02.402Z,20.70
2023-05-23T15:43:24.526Z,20.50
2023-05-23T15:48:45.081Z,20.40
2023-05-23T15:54:06.353Z,20.20
2023-05-23T15:59:29.043Z,20.10
2023-05-23T16:04:50.039Z,20.00
2023-05-23T16:10:11.385Z,19.80
2023-05-23T16:15:33.554Z,19.70
2023-05-23T16:20:54.630Z,19.50
2023-05-23T16:26:17.120Z,19.40
2023-05-23T16:31:39.480Z,19.30
2023-05-23T16:37:00.584Z,19.10
2023-05-23T16:42:21.452Z,19.00
2023-05-23T16:47:43.706Z,18.80
2023-05-23T16:53:04.973Z,18.60
2023-05-23T16:58:26.016Z,18.60
2023-05-23T17:03:48.635Z,18.50
2023-05-23T17:09:09.360Z,18.40
2023-05-23T17:14:30.376Z,18.20
2023-05-23T17:19:52.614Z,18.10
2023-05-23T17:25:13.795Z,17.90
2023-05-23T17:30:34.579Z,17.80
2023-05-23T17:35:56.681Z,17.70
2023-05-23T17:41:17.642Z,17.60
2023-05-23T17:46:39.077Z,17.50
2023-05-23T17:52:01.315Z,17.30
2023-05-23T17:57:22.329Z,17.20
2023-05-23T18:02:43.241Z,17.20
2023-05-23T18:08:05.437Z,17.10
2023-05-23T18:13:26.114Z,17.00
2023-05-23T18:18:47.056Z,16.90
2023-05-23T18:24:09.390Z,16.70
2023-05-23T18:29:30.120Z,16.50
2023-05-23T18:34:51.192Z,16.30
2023-05-23T18:40:14.050Z,16.10
2023-05-23T18:45:34.851Z,16.00
2023-05-23T18:50:55.657Z,15.80
2023-05-23T18:56:17.940Z,15.70
2023-05-23T19:01:38.595Z,15.60
2023-05-23T19:06:59.346Z,15.40
2023-05-23T19:12:21.398Z,15.20
2023-05-23T19:17:43.307Z,15.00
2023-05-23T19:23:04.401Z,14.80
2023-05-23T19:28:28.226Z,14.60
2023-05-23T19:33:49.084Z,14.50
2023-05-23T19:39:09.747Z,14.40
2023-05-23T19:44:32.238Z,14.30
2023-05-23T19:49:53.081Z,14.20
2023-05-23T19:55:16.914Z,14.10
2023-05-23T20:00:39.221Z,14.00
2023-05-23T20:06:02.870Z,13.90
2023-05-23T20:11:23.579Z,13.80
2023-05-23T20:16:45.990Z,13.70
2023-05-23T20:22:06.968Z,13.70
2023-05-23T20:27:27.993Z,13.60
2023-05-23T20:32:50.701Z,13.50
2023-05-23T20:38:11.599Z,13.40
2023-05-23T20:43:32.382Z,13.30
2023-05-23T20:48:58.397Z,13.20
2023-05-23T20:54:23.236Z,13.10
2023-05-23T20:59:44.971Z,13.00
2023-05-23T21:05:15.883Z,12.90
2023-05-23T21:10:38.401Z,12.80
2023-05-23T21:16:00.868Z,12.80
2023-05-23T21:21:24.169Z,12.70
2023-05-23T21:26:45.639Z,12.60
2023-05-23T21:32:06.306Z,12.50
2023-05-23T21:37:28.579Z,12.50
2023-05-23T21:42:49.532Z,12.50
2023-05-23T21:48:10.183Z,12.40
2023-05-23T21:53:32.411Z,12.40
2023-05-23T21:58:53.432Z,12.30
2023-05-23T22:04:14.302Z,12.30
2023-05-23T22:09:36.676Z,12.20
2023-05-23T22:14:57.945Z,12.20
2023-05-23T22:20:19.134Z,12.10
2023-05-23T22:25:41.397Z,12.10
2023-05-23T22:31:02.427Z,12.00
2023-05-23T22:36:23.365Z,12.00
2023-05-23T22:41:45.518Z,12.00
2023-05-23T22:47:06.707Z,11.90
2023-05-23T22:52:27.298Z,11.90
2023-05-23T22:57:49.645Z,11.80
2023-05-23T23:03:10.322Z,11.80
2023-05-23T23:08:31.639Z,11.80
2023-05-23T23:13:53.975Z,11.70
2023-05-23T23:19:15.127Z,11.60
2023-05-23T23:24:38.680Z,11.60
2023-05-23T23:30:00.755Z,11.60
2023-05-23T23:35:22.334Z,11.50
2023-05-23T23:40:43.518Z,11.50
2023-05-23T23:46:06.165Z,11.50
2023-05-23T23:51:27.035Z,11.40
2023-05-23T23:56:47.929Z,11.40
